Time;durP1;ratioP1;P1;durP2;ratioP2;P2;SDS_P1;SDS_P2;PMS_P1;PMS_P2;Temp;Humidity;BMP_temperature;BMP_pressure;BME280_temperature;BME280_humidity;BME280_pressure;Samples;Min_cycle;Max_cycle;Signal;HPM_P1;HPM_P2
2022/04/04 00:00:07;;;;;;;265.67;74.40;;;;;;;;;;5096958;28;20693;-88
2022/04/04 00:02:33;;;;;;;265.88;73.60;;;;;;;;;;5101520;28;20228;-88
2022/04/04 00:05:01;;;;;;;269.17;73.00;;;;;;;;;;5100156;28;20199;-88
2022/04/04 00:07:27;;;;;;;269.63;72.55;;;;;;;;;;5100491;28;20191;-88
2022/04/04 00:09:54;;;;;;;268.75;72.43;;;;;;;;;;5101350;28;20210;-88
2022/04/04 00:12:22;;;;;;;273.88;74.45;;;;;;;;;;5101676;28;20202;-88
2022/04/04 00:14:49;;;;;;;276.15;73.28;;;;;;;;;;5101876;28;20221;-88
2022/04/04 00:17:15;;;;;;;262.77;69.88;;;;;;;;;;5102615;28;20195;-90
2022/04/04 00:19:42;;;;;;;271.33;70.65;;;;;;;;;;5102711;28;20226;-88
2022/04/04 00:22:08;;;;;;;267.13;69.82;;;;;;;;;;5102507;28;20198;-89
2022/04/04 00:24:35;;;;;;;268.13;70.60;;;;;;;;;;5101670;28;20643;-89
2022/04/04 00:27:02;;;;;;;264.02;69.25;;;;;;;;;;5102443;28;20228;-89
2022/04/04 00:29:30;;;;;;;266.80;71.85;;;;;;;;;;5101790;28;20229;-89
2022/04/04 00:31:56;;;;;;;261.00;68.63;;;;;;;;;;5102501;28;20195;-90
2022/04/04 00:34:23;;;;;;;268.50;72.82;;;;;;;;;;5103172;28;20757;-89
2022/04/04 00:36:49;;;;;;;264.38;69.65;;;;;;;;;;5107447;28;20267;-89
2022/04/04 00:39:19;;;;;;;267.27;71.20;;;;;;;;;;5106846;28;20271;-88
2022/04/04 00:41:46;;;;;;;273.67;74.78;;;;;;;;;;5105972;28;20202;-88
2022/04/04 00:44:12;;;;;;;271.80;72.45;;;;;;;;;;5106300;28;20244;-88
2022/04/04 00:46:40;;;;;;;268.75;72.85;;;;;;;;;;5106327;28;20195;-88
2022/04/04 00:49:07;;;;;;;281.85;72.25;;;;;;;;;;5107094;28;20255;-88
2022/04/04 00:51:34;;;;;;;265.73;71.13;;;;;;;;;;5106415;28;20608;-88
2022/04/04 00:54:00;;;;;;;269.75;72.30;;;;;;;;;;5106127;28;20265;-88
2022/04/04 00:56:27;;;;;;;274.75;73.35;;;;;;;;;;5106797;28;20206;-88
2022/04/04 00:58:54;;;;;;;269.85;70.30;;;;;;;;;;5104315;28;20199;-88
2022/04/04 01:01:22;;;;;;;271.73;70.55;;;;;;;;;;5086457;28;20985;-88
2022/04/04 01:03:50;;;;;;;273.85;73.00;;;;;;;;;;5084087;28;20199;-88
2022/04/04 01:06:17;;;;;;;279.98;74.13;;;;;;;;;;5084090;28;20214;-88
2022/04/04 01:08:44;;;;;;;272.92;71.75;;;;;;;;;;5086340;28;20222;-88
2022/04/04 01:11:11;;;;;;;281.00;72.93;;;;;;;;;;5106594;28;20202;-88
2022/04/04 01:13:38;;;;;;;286.98;72.93;;;;;;;;;;5104948;28;20650;-88
2022/04/04 01:16:05;;;;;;;288.13;70.05;;;;;;;;;;5103893;28;20199;-88
2022/04/04 01:18:31;;;;;;;294.73;73.53;;;;;;;;;;5106397;28;20207;-88
2022/04/04 01:20:59;;;;;;;291.15;69.55;;;;;;;;;;5088769;28;20245;-88
2022/04/04 01:23:26;;;;;;;301.27;72.75;;;;;;;;;;5085779;28;20199;-88
2022/04/04 01:25:53;;;;;;;289.38;71.88;;;;;;;;;;5102916;28;20198;-88
2022/04/04 01:28:20;;;;;;;284.27;71.30;;;;;;;;;;5106693;28;20338;-88
2022/04/04 01:30:49;;;;;;;276.73;68.47;;;;;;;;;;5106162;28;20195;-88
2022/04/04 01:33:16;;;;;;;303.52;73.90;;;;;;;;;;5103298;28;20198;-88
2022/04/04 01:35:42;;;;;;;311.05;75.80;;;;;;;;;;5089530;28;20199;-87
2022/04/04 01:38:09;;;;;;;299.35;68.85;;;;;;;;;;5085249;28;20199;-88
2022/04/04 01:40:35;;;;;;;298.90;72.40;;;;;;;;;;5098822;28;20230;-88
2022/04/04 01:43:03;;;;;;;288.85;68.28;;;;;;;;;;5105709;28;20198;-88
2022/04/04 01:48:10;;;;;;;305.13;67.95;;;;;;;;;;5058948;28;20221;-88
2022/04/04 01:50:37;;;;;;;301.77;73.93;;;;;;;;;;5089400;28;20281;-88
2022/04/04 01:55:48;;;;;;;309.60;72.88;;;;;;;;;;5098252;28;20201;-89
2022/04/04 01:58:16;;;;;;;292.50;67.70;;;;;;;;;;5105110;28;20347;-87
2022/04/04 02:00:43;;;;;;;305.17;71.57;;;;;;;;;;5104097;28;20222;-89
2022/04/04 02:03:09;;;;;;;299.25;69.20;;;;;;;;;;5102804;28;21026;-90
2022/04/04 02:05:36;;;;;;;299.90;70.72;;;;;;;;;;5102130;28;20260;-89
2022/04/04 02:08:02;;;;;;;294.67;68.90;;;;;;;;;;5103714;28;20218;-90
2022/04/04 02:10:29;;;;;;;296.98;73.00;;;;;;;;;;5096152;28;20207;-89
2022/04/04 02:12:55;;;;;;;290.13;69.68;;;;;;;;;;5105013;28;20290;-89
2022/04/04 02:15:23;;;;;;;294.90;68.38;;;;;;;;;;5105491;28;20662;-89
2022/04/04 02:17:50;;;;;;;292.25;72.47;;;;;;;;;;5103719;28;20724;-89
2022/04/04 02:20:17;;;;;;;295.98;68.25;;;;;;;;;;5103055;28;20218;-89
2022/04/04 02:22:43;;;;;;;291.33;68.45;;;;;;;;;;5103667;28;20198;-89
2022/04/04 02:25:10;;;;;;;291.35;68.35;;;;;;;;;;5104545;28;20201;-90
2022/04/04 02:27:37;;;;;;;283.52;67.20;;;;;;;;;;5104473;28;20262;-90
2022/04/04 02:30:04;;;;;;;287.10;67.50;;;;;;;;;;5098439;28;20188;-89
2022/04/04 02:32:32;;;;;;;281.98;67.68;;;;;;;;;;5084761;28;20226;-90
2022/04/04 02:34:58;;;;;;;281.75;65.10;;;;;;;;;;5090010;28;20221;-89
2022/04/04 02:37:25;;;;;;;261.48;61.88;;;;;;;;;;5104758;28;20222;-90
2022/04/04 02:39:51;;;;;;;272.10;67.50;;;;;;;;;;5094868;28;20224;-89
2022/04/04 02:42:18;;;;;;;269.90;63.83;;;;;;;;;;5104628;28;20232;-89
2022/04/04 02:44:45;;;;;;;275.85;65.65;;;;;;;;;;5104236;28;20198;-90
2022/04/04 02:47:11;;;;;;;269.98;64.80;;;;;;;;;;5104590;28;20210;-90
2022/04/04 02:49:39;;;;;;;272.25;66.50;;;;;;;;;;5104341;28;20230;-89
2022/04/04 02:52:06;;;;;;;278.42;66.35;;;;;;;;;;5103843;28;20195;-90
2022/04/04 02:54:32;;;;;;;276.60;68.82;;;;;;;;;;5100680;28;20203;-89
2022/04/04 02:56:58;;;;;;;275.38;67.85;;;;;;;;;;5081543;28;20196;-90
2022/04/04 02:59:24;;;;;;;273.10;65.20;;;;;;;;;;5082022;28;20233;-90
2022/04/04 03:01:51;;;;;;;270.88;68.53;;;;;;;;;;5082774;28;20196;-89
2022/04/04 03:04:18;;;;;;;266.40;64.43;;;;;;;;;;5084229;28;20728;-89
2022/04/04 03:06:45;;;;;;;261.55;63.13;;;;;;;;;;5084244;28;20256;-89
2022/04/04 03:09:12;;;;;;;273.45;66.32;;;;;;;;;;5084042;28;20203;-89
2022/04/04 03:11:38;;;;;;;272.95;64.10;;;;;;;;;;5100764;28;20252;-89
2022/04/04 03:14:05;;;;;;;272.92;65.00;;;;;;;;;;5104263;28;20199;-89
2022/04/04 03:16:32;;;;;;;271.38;64.10;;;;;;;;;;5087551;28;20192;-90
2022/04/04 03:18:59;;;;;;;280.60;65.57;;;;;;;;;;5083675;28;20651;-89
2022/04/04 03:21:27;;;;;;;286.92;65.80;;;;;;;;;;5083863;28;20253;-89
2022/04/04 03:23:55;;;;;;;275.95;62.55;;;;;;;;;;5083029;28;20282;-89
2022/04/04 03:26:22;;;;;;;292.58;65.25;;;;;;;;;;5097156;28;20202;-90
2022/04/04 03:28:49;;;;;;;304.40;69.00;;;;;;;;;;5102902;28;20194;-89
2022/04/04 03:31:15;;;;;;;301.77;67.80;;;;;;;;;;5090985;28;20218;-90
2022/04/04 03:33:43;;;;;;;302.75;68.15;;;;;;;;;;5082688;28;20199;-90
2022/04/04 03:36:10;;;;;;;293.02;68.07;;;;;;;;;;5082915;28;20264;-89
2022/04/04 03:38:36;;;;;;;296.70;67.32;;;;;;;;;;5083544;28;20203;-90
2022/04/04 03:41:04;;;;;;;297.92;67.20;;;;;;;;;;5093849;28;20257;-90
2022/04/04 03:43:31;;;;;;;304.80;71.68;;;;;;;;;;5103348;28;20198;-89
2022/04/04 03:45:57;;;;;;;308.35;68.00;;;;;;;;;;5092731;28;20203;-89
2022/04/04 03:48:24;;;;;;;307.75;69.25;;;;;;;;;;5083125;28;20344;-89
2022/04/04 03:50:54;;;;;;;305.48;69.63;;;;;;;;;;5082536;28;20253;-89
2022/04/04 03:53:21;;;;;;;305.98;67.60;;;;;;;;;;5083571;28;20208;-89
2022/04/04 03:55:48;;;;;;;306.35;69.85;;;;;;;;;;5083658;28;20191;-88
2022/04/04 03:58:16;;;;;;;306.92;66.95;;;;;;;;;;5083401;28;20199;-88
2022/04/04 04:00:42;;;;;;;307.90;69.80;;;;;;;;;;5083260;28;20227;-88
2022/04/04 04:03:09;;;;;;;301.92;68.93;;;;;;;;;;5094916;28;20199;-88
2022/04/04 04:05:36;;;;;;;306.60;69.15;;;;;;;;;;5095402;28;20187;-89
2022/04/04 04:08:03;;;;;;;310.90;69.35;;;;;;;;;;5082768;28;20269;-89
2022/04/04 04:10:29;;;;;;;312.60;70.90;;;;;;;;;;5085594;28;20194;-89
2022/04/04 04:12:56;;;;;;;313.27;70.85;;;;;;;;;;5103001;28;20214;-89
2022/04/04 04:15:25;;;;;;;318.10;69.85;;;;;;;;;;5102526;28;20270;-88
2022/04/04 04:17:52;;;;;;;327.38;72.88;;;;;;;;;;5102355;28;20203;-88
2022/04/04 04:20:21;;;;;;;306.27;66.03;;;;;;;;;;5103157;28;20280;-88
2022/04/04 04:22:48;;;;;;;320.13;67.82;;;;;;;;;;5103048;28;20294;-88
2022/04/04 04:25:15;;;;;;;322.23;73.72;;;;;;;;;;5101978;28;20546;-88
2022/04/04 04:27:42;;;;;;;329.05;68.95;;;;;;;;;;5103001;28;20309;-90
2022/04/04 04:30:09;;;;;;;321.15;65.72;;;;;;;;;;5102682;28;20281;-90
2022/04/04 04:32:37;;;;;;;328.52;67.13;;;;;;;;;;5081731;28;20663;-89
2022/04/04 04:35:05;;;;;;;326.70;69.43;;;;;;;;;;5082259;28;20195;-89
2022/04/04 04:37:31;;;;;;;327.98;67.72;;;;;;;;;;5096003;28;20229;-89
2022/04/04 04:39:58;;;;;;;338.70;73.03;;;;;;;;;;5089539;28;20222;-88
2022/04/04 04:42:24;;;;;;;340.63;70.60;;;;;;;;;;5101009;28;20198;-89
2022/04/04 04:44:51;;;;;;;339.10;71.05;;;;;;;;;;5101925;28;20670;-89
2022/04/04 04:47:18;;;;;;;342.45;74.28;;;;;;;;;;5101295;28;20195;-89
2022/04/04 04:49:48;;;;;;;344.02;75.00;;;;;;;;;;5100075;28;20317;-89
2022/04/04 04:52:14;;;;;;;255.02;67.25;;;;;;;;;;5100889;28;20218;-88
2022/04/04 04:54:42;;;;;;;253.07;69.15;;;;;;;;;;5090612;28;20233;-89
2022/04/04 04:57:09;;;;;;;247.10;69.97;;;;;;;;;;5096759;28;20199;-89
2022/04/04 04:59:35;;;;;;;257.40;70.25;;;;;;;;;;5101030;28;20198;-88
2022/04/04 05:02:02;;;;;;;257.88;68.75;;;;;;;;;;5099923;28;20363;-88
2022/04/04 05:04:28;;;;;;;255.45;69.53;;;;;;;;;;5100441;28;20202;-89
2022/04/04 05:06:56;;;;;;;250.82;69.60;;;;;;;;;;5100655;28;20939;-88
2022/04/04 05:09:23;;;;;;;264.65;71.97;;;;;;;;;;5102982;28;20211;-88
2022/04/04 05:11:49;;;;;;;270.42;71.00;;;;;;;;;;5089663;28;20264;-88
2022/04/04 05:14:16;;;;;;;262.38;73.53;;;;;;;;;;5081597;28;20199;-88
2022/04/04 05:16:43;;;;;;;266.23;72.07;;;;;;;;;;5081669;28;20263;-88
2022/04/04 05:19:10;;;;;;;270.15;71.68;;;;;;;;;;5082377;28;20199;-88
2022/04/04 05:21:36;;;;;;;272.30;74.60;;;;;;;;;;5084515;28;20219;-88
2022/04/04 05:24:05;;;;;;;272.35;73.80;;;;;;;;;;5088271;28;20233;-89
2022/04/04 05:26:31;;;;;;;264.10;73.00;;;;;;;;;;5093986;28;20217;-89
2022/04/04 05:28:58;;;;;;;268.00;74.78;;;;;;;;;;5098413;28;20207;-89
2022/04/04 05:31:24;;;;;;;270.48;76.30;;;;;;;;;;5093024;28;20281;-88
2022/04/04 05:33:51;;;;;;;272.63;74.40;;;;;;;;;;5106514;28;20195;-88
2022/04/04 05:36:20;;;;;;;276.15;76.55;;;;;;;;;;5101524;28;20204;-89
2022/04/04 05:38:46;;;;;;;281.20;73.90;;;;;;;;;;5085721;28;20670;-89
2022/04/04 05:41:14;;;;;;;285.25;75.22;;;;;;;;;;5105344;28;20284;-89
2022/04/04 05:43:41;;;;;;;274.27;79.60;;;;;;;;;;5104040;28;20202;-88
2022/04/04 05:46:09;;;;;;;273.58;78.82;;;;;;;;;;5103835;28;20190;-89
2022/04/04 05:48:35;;;;;;;278.63;78.05;;;;;;;;;;5102914;28;20237;-88
2022/04/04 05:51:02;;;;;;;292.70;80.63;;;;;;;;;;5087938;28;20219;-89
2022/04/04 05:53:28;;;;;;;293.88;82.72;;;;;;;;;;5103985;28;20202;-89
2022/04/04 05:55:55;;;;;;;280.00;79.22;;;;;;;;;;5089164;28;20225;-88
2022/04/04 05:58:23;;;;;;;291.13;80.95;;;;;;;;;;5096509;28;20203;-88
2022/04/04 06:00:49;;;;;;;295.88;82.80;;;;;;;;;;5095979;28;20245;-88
2022/04/04 06:03:16;;;;;;;312.35;83.32;;;;;;;;;;5104211;28;20285;-88
2022/04/04 06:05:42;;;;;;;293.67;81.32;;;;;;;;;;5104275;28;20190;-88
2022/04/04 06:08:09;;;;;;;304.42;84.00;;;;;;;;;;5103846;28;20213;-88
2022/04/04 06:10:35;;;;;;;298.30;83.95;;;;;;;;;;5104484;28;20252;-89
2022/04/04 06:13:02;;;;;;;288.02;82.95;;;;;;;;;;5104330;28;20256;-88
2022/04/04 06:15:30;;;;;;;304.05;86.03;;;;;;;;;;5102353;28;20199;-88
2022/04/04 06:17:56;;;;;;;296.80;83.65;;;;;;;;;;5097381;28;20192;-89
2022/04/04 06:20:23;;;;;;;304.73;83.90;;;;;;;;;;5102497;28;20351;-88
2022/04/04 06:22:50;;;;;;;290.10;82.13;;;;;;;;;;5090008;28;20234;-88
2022/04/04 06:25:17;;;;;;;282.58;80.07;;;;;;;;;;5087990;28;20214;-90
2022/04/04 06:27:43;;;;;;;280.88;78.30;;;;;;;;;;5103971;28;20195;-88
2022/04/04 06:30:10;;;;;;;276.35;75.38;;;;;;;;;;5104111;28;20213;-88
2022/04/04 06:32:40;;;;;;;294.10;79.40;;;;;;;;;;5088895;28;20203;-89
2022/04/04 06:35:07;;;;;;;289.45;75.60;;;;;;;;;;5082943;28;20252;-88
2022/04/04 06:37:33;;;;;;;293.55;80.05;;;;;;;;;;5094683;28;20190;-88
2022/04/04 06:40:00;;;;;;;279.65;77.43;;;;;;;;;;5102026;28;20195;-88
2022/04/04 06:42:26;;;;;;;283.30;77.25;;;;;;;;;;5102709;28;20244;-88
2022/04/04 06:44:54;;;;;;;274.85;78.00;;;;;;;;;;5102545;28;20796;-88
2022/04/04 06:47:21;;;;;;;277.55;75.82;;;;;;;;;;5091651;28;20221;-89
2022/04/04 06:49:50;;;;;;;290.30;78.80;;;;;;;;;;5089122;28;20226;-89
2022/04/04 06:52:17;;;;;;;268.50;78.05;;;;;;;;;;5103010;28;20197;-88
2022/04/04 06:54:43;;;;;;;278.65;80.60;;;;;;;;;;5103757;28;20203;-89
2022/04/04 06:57:10;;;;;;;276.08;78.82;;;;;;;;;;5094208;28;20195;-88
2022/04/04 06:59:36;;;;;;;279.30;80.65;;;;;;;;;;5080466;28;20229;-89
2022/04/04 07:02:03;;;;;;;279.92;76.90;;;;;;;;;;5081256;28;20222;-89
2022/04/04 07:04:30;;;;;;;279.80;77.38;;;;;;;;;;5082371;28;20260;-88
2022/04/04 07:06:58;;;;;;;287.58;77.32;;;;;;;;;;5082614;28;20192;-89
2022/04/04 07:09:24;;;;;;;295.65;77.07;;;;;;;;;;5084102;28;20199;-88
2022/04/04 07:11:51;;;;;;;290.20;76.53;;;;;;;;;;5099730;28;20191;-88
2022/04/04 07:14:18;;;;;;;290.15;76.70;;;;;;;;;;5101232;28;20226;-87
2022/04/04 07:16:44;;;;;;;296.42;77.63;;;;;;;;;;5103884;28;20221;-88
2022/04/04 07:19:16;;;;;;;297.35;77.40;;;;;;;;;;5103871;28;20295;-92
2022/04/04 07:21:42;;;;;;;306.33;78.80;;;;;;;;;;5102496;28;20218;-88
2022/04/04 07:24:10;;;;;;;297.77;79.25;;;;;;;;;;5099211;28;20232;-88
2022/04/04 07:26:37;;;;;;;293.20;79.20;;;;;;;;;;5099029;28;20221;-88
2022/04/04 07:29:03;;;;;;;290.63;81.32;;;;;;;;;;5096662;28;20203;-88
2022/04/04 07:31:30;;;;;;;298.00;80.45;;;;;;;;;;5094058;28;20225;-88
2022/04/04 07:33:57;;;;;;;303.45;79.78;;;;;;;;;;5099585;28;20195;-88
2022/04/04 07:36:23;;;;;;;303.58;79.18;;;;;;;;;;5098806;28;20209;-88
2022/04/04 07:38:50;;;;;;;307.80;77.05;;;;;;;;;;5079608;28;20321;-88
2022/04/04 07:41:18;;;;;;;294.35;75.68;;;;;;;;;;5081871;28;20226;-89
2022/04/04 07:43:45;;;;;;;290.67;80.80;;;;;;;;;;5100371;28;20199;-88
2022/04/04 07:46:11;;;;;;;293.00;79.38;;;;;;;;;;5101998;28;20228;-88
2022/04/04 07:48:40;;;;;;;294.55;80.13;;;;;;;;;;5100469;28;20212;-88
2022/04/04 07:51:07;;;;;;;293.58;80.38;;;;;;;;;;5099699;28;20301;-88
2022/04/04 07:53:33;;;;;;;283.45;79.15;;;;;;;;;;5101102;28;20226;-86
2022/04/04 07:56:00;;;;;;;286.95;76.72;;;;;;;;;;5101640;28;20335;-87
2022/04/04 07:58:28;;;;;;;284.13;80.15;;;;;;;;;;5102399;28;20199;-87
2022/04/04 08:00:54;;;;;;;287.20;76.90;;;;;;;;;;5102830;28;20203;-86
2022/04/04 08:35:12;;;;;;;310.23;90.00;;;;;;;;;;5119534;27;20563;-89
2022/04/04 08:37:41;;;;;;;296.93;85.73;;;;;;;;;;5120550;28;20436;-89
2022/04/04 08:40:08;;;;;;;302.17;85.27;;;;;;;;;;5120478;28;20499;-90
2022/04/04 08:42:34;;;;;;;298.03;82.47;;;;;;;;;;5118594;28;20435;-89
2022/04/04 08:45:01;;;;;;;307.13;89.10;;;;;;;;;;5119582;28;20972;-89
2022/04/04 08:47:29;;;;;;;304.80;84.73;;;;;;;;;;5120337;28;20469;-89
2022/04/04 08:49:56;;;;;;;306.27;83.80;;;;;;;;;;5120358;28;20452;-89
2022/04/04 08:52:25;;;;;;;312.97;88.43;;;;;;;;;;5117883;28;20444;-88
2022/04/04 08:54:52;;;;;;;310.67;86.97;;;;;;;;;;5118933;28;20444;-88
2022/04/04 08:57:18;;;;;;;302.63;86.57;;;;;;;;;;5118657;28;20443;-90
2022/04/04 08:59:45;;;;;;;310.67;88.67;;;;;;;;;;5114950;28;20476;-91
2022/04/04 09:02:11;;;;;;;314.13;93.53;;;;;;;;;;5112789;28;20436;-90
2022/04/04 09:04:38;;;;;;;314.13;84.90;;;;;;;;;;5116100;28;20504;-90
2022/04/04 09:07:06;;;;;;;312.80;86.67;;;;;;;;;;5116039;28;20444;-89
2022/04/04 09:09:39;;;;;;;319.37;88.80;;;;;;;;;;5117447;28;20489;-89
2022/04/04 09:12:07;;;;;;;313.97;84.97;;;;;;;;;;5116981;28;20524;-91
2022/04/04 09:14:35;;;;;;;311.77;84.03;;;;;;;;;;5118675;28;20467;-90
2022/04/04 09:17:02;;;;;;;310.60;81.70;;;;;;;;;;5109897;28;20449;-89
2022/04/04 09:19:29;;;;;;;317.77;82.13;;;;;;;;;;5107079;28;20953;-89
2022/04/04 09:21:55;;;;;;;318.47;84.30;;;;;;;;;;5105659;28;20454;-89
2022/04/04 09:24:22;;;;;;;309.27;82.63;;;;;;;;;;5119840;28;20932;-90
2022/04/04 09:26:51;;;;;;;312.90;82.57;;;;;;;;;;5119695;28;20469;-88
2022/04/04 09:29:19;;;;;;;311.40;83.43;;;;;;;;;;5099514;28;20524;-89
2022/04/04 09:31:57;;;;;;;309.87;83.27;;;;;;;;;;5092313;28;20477;-88
2022/04/04 09:34:24;;;;;;;314.70;85.47;;;;;;;;;;5084906;28;20472;-89
2022/04/04 09:36:51;;;;;;;321.37;86.63;;;;;;;;;;5090133;28;20457;-89
2022/04/04 09:39:17;;;;;;;317.40;86.53;;;;;;;;;;5104125;28;20449;-90
2022/04/04 09:41:44;;;;;;;318.83;83.60;;;;;;;;;;5104111;28;20488;-89
2022/04/04 09:44:12;;;;;;;314.57;85.70;;;;;;;;;;5104525;28;20438;-89
2022/04/04 09:46:42;;;;;;;320.00;87.60;;;;;;;;;;5104039;28;20982;-90
2022/04/04 09:49:10;;;;;;;318.53;86.80;;;;;;;;;;5103555;28;20449;-89
2022/04/04 09:51:44;;;;;;;317.97;84.80;;;;;;;;;;5104434;28;20478;-89
2022/04/04 09:54:11;;;;;;;322.60;86.80;;;;;;;;;;5104009;28;20453;-89
2022/04/04 09:56:37;;;;;;;321.33;86.57;;;;;;;;;;5091857;28;20465;-90
2022/04/04 09:59:04;;;;;;;315.17;87.00;;;;;;;;;;5086824;28;20460;-89
2022/04/04 10:01:32;;;;;;;323.70;87.80;;;;;;;;;;5091939;28;20549;-89
2022/04/04 10:03:59;;;;;;;331.27;93.77;;;;;;;;;;5105267;28;20449;-89
2022/04/04 10:06:27;;;;;;;334.57;92.87;;;;;;;;;;5105156;28;20530;-90
2022/04/04 10:08:56;;;;;;;332.50;88.67;;;;;;;;;;5089860;28;20530;-91
2022/04/04 10:11:23;;;;;;;332.27;89.97;;;;;;;;;;5082377;28;20514;-88
2022/04/04 10:13:52;;;;;;;335.80;94.63;;;;;;;;;;5090950;28;20460;-88
2022/04/04 10:16:19;;;;;;;356.40;98.57;;;;;;;;;;5100072;28;20461;-89
2022/04/04 10:18:47;;;;;;;341.70;96.40;;;;;;;;;;5102430;28;20436;-89
2022/04/04 10:21:13;;;;;;;344.83;96.90;;;;;;;;;;5099743;28;20556;-89
2022/04/04 10:23:41;;;;;;;337.50;90.73;;;;;;;;;;5099486;28;20445;-89
2022/04/04 10:26:08;;;;;;;338.60;92.80;;;;;;;;;;5101780;28;20449;-88
2022/04/04 10:28:37;;;;;;;329.23;89.57;;;;;;;;;;5103995;28;20437;-89
2022/04/04 10:31:11;;;;;;;336.47;93.67;;;;;;;;;;5101966;28;20437;-89
2022/04/04 10:33:38;;;;;;;336.87;94.07;;;;;;;;;;5098863;28;20480;-89
2022/04/04 10:36:07;;;;;;;338.40;91.73;;;;;;;;;;5104468;28;20417;-88
2022/04/04 10:38:34;;;;;;;339.37;95.37;;;;;;;;;;5101374;28;20449;-88
2022/04/04 10:41:01;;;;;;;340.03;95.93;;;;;;;;;;5103788;28;20483;-89
2022/04/04 10:43:31;;;;;;;336.30;92.13;;;;;;;;;;5100246;28;20543;-89
2022/04/04 10:45:59;;;;;;;340.77;94.47;;;;;;;;;;5103763;28;20497;-89
2022/04/04 10:48:29;;;;;;;336.20;92.67;;;;;;;;;;5102968;28;20460;-88
2022/04/04 10:51:01;;;;;;;337.20;95.17;;;;;;;;;;5102683;28;20441;-88
2022/04/04 10:53:40;;;;;;;345.20;98.77;;;;;;;;;;5101239;28;20541;-88
2022/04/04 10:56:09;;;;;;;336.07;92.73;;;;;;;;;;5103339;28;20433;-88
2022/04/04 10:58:36;;;;;;;343.97;97.57;;;;;;;;;;5103821;28;20521;-88
2022/04/04 11:01:04;;;;;;;341.50;96.70;;;;;;;;;;5103973;28;20546;-89
2022/04/04 11:03:31;;;;;;;344.20;95.27;;;;;;;;;;5104035;28;20441;-89
2022/04/04 11:09:02;;;;;;;343.50;95.50;;;;;;;;;;5084243;28;20472;-90
2022/04/04 11:11:59;;;;;;;335.37;93.60;;;;;;;;;;5082381;28;20983;-90
2022/04/04 11:14:44;;;;;;;335.70;90.60;;;;;;;;;;5055741;28;20460;-90
2022/04/04 11:23:11;;;;;;;353.07;100.57;;;;;;;;;;5099991;28;21011;-88
2022/04/04 11:25:48;;;;;;;348.73;97.20;;;;;;;;;;5102087;28;20477;-88
2022/04/04 11:28:17;;;;;;;347.67;101.00;;;;;;;;;;5093409;28;20441;-89
2022/04/04 11:30:44;;;;;;;347.07;98.67;;;;;;;;;;5082773;28;21140;-88
2022/04/04 11:33:17;;;;;;;342.87;97.27;;;;;;;;;;5096903;28;20499;-88
2022/04/04 11:35:47;;;;;;;343.87;96.93;;;;;;;;;;5102372;28;20453;-89
2022/04/04 11:38:15;;;;;;;345.83;97.97;;;;;;;;;;5102641;28;20488;-88
2022/04/04 11:40:45;;;;;;;343.83;93.57;;;;;;;;;;5087440;28;20509;-88
2022/04/04 11:43:12;;;;;;;354.47;101.20;;;;;;;;;;5099955;28;20437;-89
2022/04/04 11:45:39;;;;;;;345.03;97.37;;;;;;;;;;5098640;28;20448;-88
2022/04/04 11:48:07;;;;;;;345.27;95.37;;;;;;;;;;5102016;28;20470;-88
2022/04/04 11:50:35;;;;;;;345.23;93.30;;;;;;;;;;5102927;28;20633;-88
2022/04/04 11:53:03;;;;;;;338.63;90.47;;;;;;;;;;5102579;28;20448;-88
2022/04/04 11:55:31;;;;;;;350.17;100.67;;;;;;;;;;5102028;28;20513;-89
2022/04/04 11:58:00;;;;;;;353.43;102.47;;;;;;;;;;5100131;28;20447;-89
2022/04/04 12:00:27;;;;;;;346.27;98.67;;;;;;;;;;5097110;28;20448;-89
2022/04/04 12:02:54;;;;;;;352.30;101.50;;;;;;;;;;5098895;28;20455;-90
2022/04/04 12:05:23;;;;;;;348.90;98.07;;;;;;;;;;5078909;28;20480;-89
2022/04/04 12:07:51;;;;;;;351.10;99.57;;;;;;;;;;5093090;28;20452;-90
2022/04/04 12:10:24;;;;;;;355.27;103.20;;;;;;;;;;5097938;28;20480;-89
2022/04/04 12:12:56;;;;;;;353.90;104.87;;;;;;;;;;5097142;28;20494;-89
2022/04/04 12:15:27;;;;;;;358.17;101.73;;;;;;;;;;5076613;28;20445;-90
2022/04/04 12:17:54;;;;;;;348.97;100.33;;;;;;;;;;5078425;28;20446;-90
2022/04/04 12:20:20;;;;;;;346.97;101.40;;;;;;;;;;5081132;28;20457;-91
2022/04/04 12:25:31;;;;;;;353.53;101.60;;;;;;;;;;5077388;28;20452;-91
2022/04/04 12:27:58;;;;;;;343.70;96.53;;;;;;;;;;5078721;28;20449;-92
2022/04/04 12:30:32;;;;;;;349.40;99.97;;;;;;;;;;5097338;28;21309;-91
2022/04/04 12:33:11;;;;;;;352.67;101.20;;;;;;;;;;5096715;28;20440;-94
2022/04/04 12:35:42;;;;;;;345.23;96.47;;;;;;;;;;5097947;28;20448;-92
2022/04/04 12:38:08;;;;;;;342.67;96.03;;;;;;;;;;5082775;28;20525;-92
2022/04/04 12:40:37;;;;;;;345.23;96.40;;;;;;;;;;5097477;28;21043;-92
2022/04/04 12:43:05;;;;;;;350.70;98.60;;;;;;;;;;5097614;28;20444;-91
2022/04/04 12:45:34;;;;;;;339.93;92.93;;;;;;;;;;5097881;28;20513;-92
2022/04/04 12:48:01;;;;;;;335.50;92.30;;;;;;;;;;5102072;28;20436;-91
2022/04/04 12:50:37;;;;;;;336.83;94.97;;;;;;;;;;5102362;28;20448;-92
2022/04/04 12:53:03;;;;;;;336.77;92.57;;;;;;;;;;5101931;28;20460;-92
2022/04/04 12:55:30;;;;;;;342.30;96.60;;;;;;;;;;5101861;28;20449;-90
2022/04/04 12:57:57;;;;;;;344.07;96.63;;;;;;;;;;5101981;28;20444;-88
2022/04/04 13:00:27;;;;;;;345.13;98.43;;;;;;;;;;5100691;28;20456;-88
2022/04/04 13:02:56;;;;;;;349.60;97.97;;;;;;;;;;5087915;28;20495;-87
2022/04/04 13:05:24;;;;;;;346.77;98.90;;;;;;;;;;5097178;28;20456;-86
2022/04/04 13:07:52;;;;;;;346.67;98.07;;;;;;;;;;5101466;28;20463;-86
2022/04/04 13:10:18;;;;;;;345.73;98.70;;;;;;;;;;5093117;28;20441;-88
2022/04/04 13:12:45;;;;;;;346.53;98.90;;;;;;;;;;5105515;28;20478;-87
2022/04/04 13:15:12;;;;;;;346.17;99.20;;;;;;;;;;5095813;28;20445;-88
2022/04/04 13:17:39;;;;;;;346.70;98.97;;;;;;;;;;5103121;28;20452;-90
2022/04/04 13:20:12;;;;;;;346.57;100.90;;;;;;;;;;5094902;28;20441;-89
2022/04/04 13:22:39;;;;;;;348.50;100.07;;;;;;;;;;5095115;28;20520;-88
2022/04/04 13:25:05;;;;;;;349.17;99.00;;;;;;;;;;5103649;28;20494;-88
2022/04/04 13:27:33;;;;;;;346.33;99.10;;;;;;;;;;5105610;28;20448;-89
2022/04/04 13:30:00;;;;;;;347.67;98.33;;;;;;;;;;5105080;28;20448;-88
2022/04/04 13:32:26;;;;;;;351.77;101.80;;;;;;;;;;5105324;28;20449;-88
2022/04/04 13:34:52;;;;;;;352.47;101.10;;;;;;;;;;5104682;28;20494;-89
2022/04/04 13:37:20;;;;;;;347.07;97.73;;;;;;;;;;5104722;28;20445;-89
2022/04/04 13:39:47;;;;;;;348.50;98.17;;;;;;;;;;5104302;28;20449;-92
2022/04/04 13:42:15;;;;;;;348.57;94.53;;;;;;;;;;5104475;28;21000;-91
2022/04/04 13:44:42;;;;;;;350.77;97.37;;;;;;;;;;5100076;28;20465;-90
2022/04/04 13:47:08;;;;;;;350.43;98.30;;;;;;;;;;5087352;28;20441;-90
2022/04/04 13:49:35;;;;;;;349.70;93.40;;;;;;;;;;5104013;28;20466;-92
2022/04/04 13:52:01;;;;;;;346.37;95.43;;;;;;;;;;5102389;28;20494;-91
2022/04/04 13:54:29;;;;;;;345.73;94.57;;;;;;;;;;5097116;28;20957;-90
2022/04/04 13:56:56;;;;;;;356.50;100.27;;;;;;;;;;5101389;28;20441;-91
2022/04/04 13:59:22;;;;;;;344.97;92.10;;;;;;;;;;5090835;28;20480;-91
2022/04/04 14:01:49;;;;;;;346.27;95.03;;;;;;;;;;5087089;28;20496;-92
2022/04/04 14:04:15;;;;;;;344.90;93.20;;;;;;;;;;5104006;28;20444;-90
2022/04/04 14:06:42;;;;;;;348.77;95.03;;;;;;;;;;5101622;28;20440;-91
2022/04/04 14:09:08;;;;;;;350.93;95.97;;;;;;;;;;5097726;28;20464;-91
2022/04/04 14:11:36;;;;;;;348.87;93.67;;;;;;;;;;5100422;28;20548;-91
2022/04/04 14:14:04;;;;;;;351.37;94.87;;;;;;;;;;5102401;28;20441;-91
2022/04/04 14:16:31;;;;;;;351.80;94.30;;;;;;;;;;5100948;28;20529;-92
2022/04/04 14:18:57;;;;;;;347.40;89.07;;;;;;;;;;5101802;28;20437;-90
2022/04/04 14:21:24;;;;;;;350.73;94.23;;;;;;;;;;5103348;28;20472;-92
2022/04/04 14:23:50;;;;;;;346.60;89.57;;;;;;;;;;5099886;28;20455;-91
2022/04/04 14:26:17;;;;;;;343.63;86.97;;;;;;;;;;5090342;28;20471;-91
2022/04/04 14:28:45;;;;;;;351.50;93.23;;;;;;;;;;5097859;28;20474;-91
2022/04/04 14:31:11;;;;;;;347.20;92.30;;;;;;;;;;5096746;28;20441;-92
2022/04/04 14:33:38;;;;;;;346.70;91.27;;;;;;;;;;5100836;28;20468;-91
2022/04/04 14:36:05;;;;;;;348.07;91.63;;;;;;;;;;5102063;28;20445;-91
2022/04/04 14:38:32;;;;;;;354.93;94.57;;;;;;;;;;5101719;28;20449;-90
2022/04/04 14:41:00;;;;;;;343.70;87.33;;;;;;;;;;5103130;28;20447;-90
2022/04/04 14:43:27;;;;;;;348.57;92.50;;;;;;;;;;5098973;28;20514;-91
2022/04/04 14:45:55;;;;;;;343.43;90.97;;;;;;;;;;5103332;28;20444;-91
2022/04/04 14:48:21;;;;;;;344.37;88.00;;;;;;;;;;5103965;28;20452;-90
2022/04/04 14:50:48;;;;;;;353.37;88.40;;;;;;;;;;5103399;28;20451;-91
2022/04/04 14:53:14;;;;;;;342.37;88.10;;;;;;;;;;5102996;28;21224;-92